Lapwai, Idaho
Current Conditions -  °F | °C
As of 9:56 PM on Saturday 25 Oct 2014 (Local Time) from KLWS Reporting Station
Clear Clear  
Wind Chill: 61°   Ceiling: Unl
Heat Index: 61°   Visibility: 10mi
Dew Point: 43°   Wind: 14mph
Humidity: 52%   Direction: 200°SSW
Pressure: 29.66"   Gusts: NA
Location:  46.4°N, 116.8°W
Report Text: KLWS 260456Z 20012KT 10SM CLR 16/06 A2966 RMK AO2 PK WND 19033/0357 SLP043 T01610061
Loading
Personal Weather Stations






























Interactive Weather Map
Tropical Storm Tracking
New forecast layout! Learn more

10-Day Weather Forecast

Advertisements
Track Severe Weather on mobile